Terminal Aerodrome Forecast
Issued by NWS

Home | Current Version | Previous Version | Text Only | Print | Product List | Glossary On
Versions: 1 2 3 4 5 6 7 8 9 10 11 12 13
021
FTUS46 KSGX 261125
TAFSNA
TAF
KSNA 261125Z 2612/2712 VRB04KT P6SM SKC WS015/06018KT
     FM261700 VRB04KT P6SM SKC
     FM261900 23009KT P6SM SCT150
     FM270200 VRB05KT P6SM SCT100 SCT150
     FM271100 VRB04KT P6SM BKN100=

USA.gov is the U.S. government's official web portal to all federal, state and local government web resources and services.